Time;durP1;ratioP1;P1;durP2;ratioP2;P2;SDS_P1;SDS_P2;PMS_P1;PMS_P2;Temp;Humidity;BMP_temperature;BMP_pressure;BME280_temperature;BME280_humidity;BME280_pressure;Samples;Min_cycle;Max_cycle;Signal;HPM_P1;HPM_P2
2022/01/11 00:00:07;;;;;;;0.65;0.32;;;6.00;67.80;;;;;;5100246;28;20115;-74
2022/01/11 00:02:35;;;;;;;0.98;0.20;;;6.40;66.20;;;;;;5094440;28;20031;-74
2022/01/11 00:05:01;;;;;;;0.60;0.17;;;6.50;66.20;;;;;;5104788;28;20086;-74
2022/01/11 00:07:29;;;;;;;0.15;0.10;;;6.40;66.50;;;;;;5110020;28;20304;-73
2022/01/11 00:09:57;;;;;;;0.85;0.30;;;6.30;66.50;;;;;;5101370;28;20027;-74
2022/01/11 00:12:22;;;;;;;0.52;0.22;;;6.10;67.40;;;;;;5096332;28;20128;-73
2022/01/11 00:14:48;;;;;;;0.90;0.20;;;6.50;66.00;;;;;;5105433;28;21823;-73
2022/01/11 00:17:14;;;;;;;0.50;0.30;;;6.40;66.20;;;;;;5097627;28;20028;-73
2022/01/11 00:19:40;;;;;;;0.82;0.30;;;6.30;66.60;;;;;;5106722;28;21873;-73
2022/01/11 00:22:14;;;;;;;1.00;0.30;;;6.10;67.10;;;;;;5109545;28;20081;-73
2022/01/11 00:24:40;;;;;;;1.10;0.52;;;6.60;65.80;;;;;;5109396;28;20063;-73
2022/01/11 00:27:09;;;;;;;0.10;0.00;;;6.50;66.30;;;;;;5109793;28;20735;-73
2022/01/11 00:29:39;;;;;;;0.73;0.25;;;6.30;66.40;;;;;;5110453;28;20152;-73
2022/01/11 00:32:10;;;;;;;1.00;0.30;;;6.30;66.60;;;;;;5105110;28;20065;-73
2022/01/11 00:34:52;;;;;;;0.25;0.10;;;6.00;67.60;;;;;;5109582;28;20115;-73
2022/01/11 00:37:19;;;;;;;0.70;0.32;;;5.80;68.00;;;;;;5110620;28;20034;-73
2022/01/11 00:39:45;;;;;;;0.10;0.10;;;6.20;67.10;;;;;;5105908;28;20058;-73
2022/01/11 00:42:16;;;;;;;0.28;0.10;;;6.30;66.80;;;;;;5106281;28;20097;-74
2022/01/11 00:44:43;;;;;;;0.10;0.10;;;6.50;66.20;;;;;;5105626;28;20036;-73
2022/01/11 00:47:09;;;;;;;0.43;0.22;;;6.30;66.70;;;;;;5109374;28;20499;-73
2022/01/11 00:49:35;;;;;;;0.20;0.10;;;6.40;66.60;;;;;;5105103;28;20028;-73
2022/01/11 00:52:02;;;;;;;0.40;0.20;;;6.20;66.90;;;;;;5108609;28;20118;-73
2022/01/11 00:54:28;;;;;;;0.85;0.17;;;6.20;66.90;;;;;;5101468;28;20523;-73
2022/01/11 00:56:53;;;;;;;0.57;0.20;;;6.20;67.00;;;;;;5109444;28;20123;-73
2022/01/11 00:59:19;;;;;;;0.45;0.22;;;6.10;67.10;;;;;;5108796;28;20432;-73
2022/01/11 01:01:45;;;;;;;1.08;0.30;;;5.90;67.80;;;;;;5107259;28;20028;-73
2022/01/11 01:04:11;;;;;;;0.85;0.20;;;5.80;67.80;;;;;;5105943;28;20034;-73
2022/01/11 01:06:39;;;;;;;0.63;0.20;;;5.70;67.90;;;;;;5100976;28;20085;-73
2022/01/11 01:09:05;;;;;;;1.13;0.30;;;5.60;68.40;;;;;;5101891;28;20059;-73
2022/01/11 01:11:32;;;;;;;4.82;1.38;;;5.60;68.00;;;;;;5106074;28;20475;-73
2022/01/11 01:13:58;;;;;;;0.80;0.32;;;5.60;68.70;;;;;;5106476;28;20104;-73
2022/01/11 01:16:24;;;;;;;1.08;0.30;;;5.30;69.30;;;;;;5109345;28;20058;-73
2022/01/11 01:18:50;;;;;;;0.28;0.20;;;5.20;69.10;;;;;;5103646;28;20474;-74
2022/01/11 01:21:16;;;;;;;1.45;0.30;;;5.10;69.40;;;;;;5110014;28;20073;-73
2022/01/11 01:23:42;;;;;;;0.90;0.30;;;5.60;68.10;;;;;;5105980;28;20066;-73
2022/01/11 01:26:09;;;;;;;1.75;0.28;;;5.80;67.80;;;;;;5109782;28;20063;-73
2022/01/11 01:28:35;;;;;;;0.52;0.25;;;6.00;67.30;;;;;;5109251;28;20027;-74
2022/01/11 01:31:01;;;;;;;1.58;0.30;;;6.00;67.00;;;;;;5111744;28;20103;-74
2022/01/11 01:33:33;;;;;;;0.52;0.20;;;5.90;67.60;;;;;;5111407;28;20039;-73
2022/01/11 01:36:02;;;;;;;1.00;0.40;;;5.60;67.90;;;;;;5113774;28;20028;-74
2022/01/11 01:38:30;;;;;;;1.10;0.40;;;5.60;68.00;;;;;;5112398;28;20035;-73
2022/01/11 01:41:02;;;;;;;0.57;0.20;;;5.50;68.30;;;;;;5111598;28;20032;-73
2022/01/11 01:43:29;;;;;;;0.32;0.22;;;5.70;67.80;;;;;;5112426;28;20038;-73
2022/01/11 01:45:58;;;;;;;0.90;0.32;;;5.60;67.50;;;;;;5111764;28;20051;-73
2022/01/11 01:48:24;;;;;;;0.40;0.20;;;5.60;67.40;;;;;;5112436;28;20031;-73
2022/01/11 01:50:51;;;;;;;1.02;0.38;;;5.60;67.60;;;;;;5112715;28;20032;-74
2022/01/11 01:53:18;;;;;;;3.10;0.30;;;5.50;67.80;;;;;;5101938;28;20034;-74
2022/01/11 01:55:45;;;;;;;1.48;0.40;;;5.40;68.40;;;;;;5104228;28;20141;-74
2022/01/11 01:58:12;;;;;;;0.90;0.40;;;5.20;69.00;;;;;;5109489;28;20126;-73
2022/01/11 02:00:42;;;;;;;0.50;0.30;;;5.10;68.70;;;;;;5107121;28;20110;-73
2022/01/11 02:03:12;;;;;;;1.17;0.50;;;5.10;68.60;;;;;;5112624;28;20111;-74
2022/01/11 02:05:38;;;;;;;2.15;0.28;;;5.00;68.80;;;;;;5101013;27;20061;-73
2022/01/11 02:08:06;;;;;;;1.00;0.40;;;5.20;68.20;;;;;;5098437;28;20034;-73
2022/01/11 02:10:34;;;;;;;0.95;0.38;;;5.30;68.20;;;;;;5107836;28;20032;-74
2022/01/11 02:13:02;;;;;;;0.38;0.17;;;5.30;68.20;;;;;;5111086;28;20042;-73
2022/01/11 02:15:29;;;;;;;0.88;0.45;;;5.30;68.60;;;;;;5102976;28;20040;-73
2022/01/11 02:17:54;;;;;;;0.57;0.30;;;4.90;69.50;;;;;;5103381;28;20050;-73
2022/01/11 02:20:20;;;;;;;1.42;0.40;;;5.00;69.20;;;;;;5112896;28;20106;-73
2022/01/11 02:22:46;;;;;;;0.50;0.20;;;5.30;68.30;;;;;;5107132;28;20111;-73
2022/01/11 02:25:12;;;;;;;1.73;0.50;;;5.20;68.80;;;;;;5107442;28;20092;-73
2022/01/11 02:27:37;;;;;;;1.77;0.45;;;5.00;70.00;;;;;;5104443;28;20032;-73
2022/01/11 02:30:07;;;;;;;1.05;0.30;;;4.70;70.20;;;;;;5112487;28;20496;-73
2022/01/11 02:32:32;;;;;;;1.23;0.50;;;4.90;69.60;;;;;;5106089;28;20028;-73
2022/01/11 02:34:58;;;;;;;0.20;0.20;;;4.80;69.80;;;;;;5108420;28;20020;-74
2022/01/11 02:37:24;;;;;;;3.08;0.30;;;4.50;70.40;;;;;;5099407;28;20507;-73
2022/01/11 02:39:49;;;;;;;0.38;0.25;;;4.40;70.70;;;;;;5107014;28;20034;-74
2022/01/11 02:42:15;;;;;;;0.80;0.28;;;4.70;69.50;;;;;;5102439;28;20077;-73
2022/01/11 02:44:41;;;;;;;3.92;0.20;;;4.90;69.10;;;;;;5109138;28;20095;-74
2022/01/11 02:47:07;;;;;;;0.55;0.30;;;4.80;69.30;;;;;;5109458;28;20401;-73
2022/01/11 02:49:32;;;;;;;2.10;0.40;;;5.00;68.80;;;;;;5109197;28;20470;-73
2022/01/11 02:51:58;;;;;;;1.30;0.70;;;5.30;68.20;;;;;;5110412;28;20453;-74
2022/01/11 02:54:24;;;;;;;1.17;0.30;;;5.20;68.40;;;;;;5111199;28;20043;-73
2022/01/11 02:56:50;;;;;;;1.00;0.40;;;5.00;68.60;;;;;;5112147;28;20030;-73
2022/01/11 02:59:16;;;;;;;0.63;0.28;;;5.10;68.60;;;;;;5109483;28;20485;-73
2022/01/11 03:01:42;;;;;;;0.88;0.35;;;5.20;68.30;;;;;;5106044;28;20035;-73
2022/01/11 03:04:07;;;;;;;1.02;0.20;;;5.20;68.20;;;;;;5109428;28;20028;-73
2022/01/11 03:06:33;;;;;;;0.95;0.35;;;4.90;69.30;;;;;;5104992;28;20035;-74
2022/01/11 03:08:59;;;;;;;0.38;0.25;;;4.80;69.90;;;;;;5110664;28;20049;-73
2022/01/11 03:11:31;;;;;;;0.38;0.20;;;4.90;69.10;;;;;;5110282;28;20036;-73
2022/01/11 03:13:58;;;;;;;2.20;0.30;;;4.90;69.40;;;;;;5108278;28;20023;-74
2022/01/11 03:16:24;;;;;;;1.10;0.40;;;5.00;68.90;;;;;;5111369;28;20107;-73
2022/01/11 03:18:50;;;;;;;1.02;0.43;;;4.90;69.50;;;;;;5106960;28;20441;-73
2022/01/11 03:21:16;;;;;;;0.75;0.40;;;4.90;69.10;;;;;;5111255;28;20108;-74
2022/01/11 03:23:42;;;;;;;0.75;0.10;;;4.70;69.70;;;;;;5102015;28;20482;-73
2022/01/11 03:26:07;;;;;;;1.70;0.93;;;4.70;70.10;;;;;;5109582;28;20028;-74
2022/01/11 03:28:34;;;;;;;0.40;0.35;;;4.90;69.40;;;;;;5108231;28;20035;-73
2022/01/11 03:31:00;;;;;;;1.27;0.40;;;4.90;69.50;;;;;;5111476;28;20030;-73
2022/01/11 03:33:27;;;;;;;2.38;0.28;;;4.90;69.10;;;;;;5106116;28;20020;-74
2022/01/11 03:35:53;;;;;;;0.65;0.30;;;4.90;69.50;;;;;;5106602;28;20024;-74
2022/01/11 03:38:22;;;;;;;2.17;0.30;;;4.50;70.60;;;;;;5104611;28;20115;-74
2022/01/11 03:40:49;;;;;;;0.75;0.30;;;4.50;70.30;;;;;;5109175;28;20477;-74
2022/01/11 03:43:14;;;;;;;0.57;0.20;;;4.50;70.30;;;;;;5104676;28;20023;-73
2022/01/11 03:45:40;;;;;;;0.85;0.68;;;4.60;69.80;;;;;;5110655;28;20038;-73
2022/01/11 03:48:08;;;;;;;1.15;0.43;;;4.90;69.10;;;;;;5109516;28;20508;-73
2022/01/11 03:50:35;;;;;;;0.28;0.20;;;4.90;68.90;;;;;;5107194;28;20082;-73
2022/01/11 03:53:15;;;;;;;2.17;0.38;;;4.80;69.50;;;;;;5108737;28;20032;-73
2022/01/11 03:58:10;;;;;;;0.75;0.30;;;4.70;69.40;;;;;;5105354;28;20397;-73
2022/01/11 04:00:37;;;;;;;0.30;0.17;;;4.70;69.70;;;;;;5110191;28;20032;-73
2022/01/11 04:03:04;;;;;;;2.10;0.35;;;4.80;69.30;;;;;;5097777;28;20067;-72
2022/01/11 04:05:30;;;;;;;0.38;0.30;;;4.80;69.30;;;;;;5094273;28;20587;-73
2022/01/11 04:07:56;;;;;;;0.52;0.38;;;4.50;70.30;;;;;;5094712;28;20039;-72
2022/01/11 04:10:22;;;;;;;1.65;0.35;;;4.60;69.70;;;;;;5099760;28;20401;-72
2022/01/11 04:12:48;;;;;;;0.63;0.30;;;4.40;70.60;;;;;;5094643;28;20028;-73
2022/01/11 04:15:14;;;;;;;0.80;0.30;;;4.50;70.00;;;;;;5100619;28;20024;-73
2022/01/11 04:17:40;;;;;;;0.77;0.35;;;4.70;69.50;;;;;;5092274;28;20027;-73
2022/01/11 04:20:07;;;;;;;0.85;0.32;;;4.60;69.80;;;;;;5102106;28;20027;-73
2022/01/11 04:22:33;;;;;;;0.77;0.30;;;4.70;69.70;;;;;;5105027;28;20032;-72
2022/01/11 04:24:59;;;;;;;0.57;0.28;;;4.50;70.30;;;;;;5102788;28;20035;-72
2022/01/11 04:27:25;;;;;;;0.52;0.20;;;4.50;70.10;;;;;;5104648;28;20028;-72
2022/01/11 04:29:50;;;;;;;0.63;0.17;;;4.40;71.00;;;;;;5103889;28;20028;-73
2022/01/11 04:32:16;;;;;;;1.10;0.57;;;4.60;69.70;;;;;;5105868;28;20085;-72
2022/01/11 04:34:42;;;;;;;0.40;0.22;;;4.50;70.60;;;;;;5105270;28;20036;-72
2022/01/11 04:37:08;;;;;;;0.63;0.30;;;4.60;70.00;;;;;;5104739;28;20031;-73
2022/01/11 04:39:33;;;;;;;0.43;0.20;;;4.30;71.10;;;;;;5105077;28;20023;-73
2022/01/11 04:41:59;;;;;;;1.08;0.40;;;3.90;71.60;;;;;;5106083;28;20111;-73
2022/01/11 04:44:25;;;;;;;1.05;0.30;;;4.10;71.40;;;;;;5104241;28;20024;-73
2022/01/11 04:46:51;;;;;;;0.98;0.40;;;4.40;70.80;;;;;;5098293;28;20028;-72
2022/01/11 04:49:17;;;;;;;1.23;0.30;;;4.40;70.30;;;;;;5092815;28;20385;-73
2022/01/11 04:51:43;;;;;;;0.63;0.25;;;4.30;70.60;;;;;;5102628;28;20031;-72
2022/01/11 04:54:08;;;;;;;0.85;0.20;;;4.60;70.10;;;;;;5101825;28;20055;-72
2022/01/11 04:56:35;;;;;;;0.35;0.20;;;4.50;70.30;;;;;;5102925;28;20034;-73
2022/01/11 04:59:00;;;;;;;0.43;0.30;;;4.30;70.90;;;;;;5099550;28;20031;-73
2022/01/11 05:01:29;;;;;;;0.15;0.15;;;4.40;70.60;;;;;;5099973;28;20024;-73
2022/01/11 05:03:55;;;;;;;0.65;0.40;;;4.40;70.60;;;;;;5102244;28;20038;-72
2022/01/11 05:06:20;;;;;;;4.18;0.30;;;4.20;70.80;;;;;;5104203;28;20470;-73
2022/01/11 05:08:46;;;;;;;0.93;0.40;;;4.30;70.80;;;;;;5100596;28;20035;-72
2022/01/11 05:11:12;;;;;;;0.88;0.30;;;4.40;70.00;;;;;;5101835;28;20111;-72
2022/01/11 05:13:38;;;;;;;1.27;0.35;;;4.60;69.70;;;;;;5106144;28;20054;-73
2022/01/11 05:16:04;;;;;;;0.43;0.20;;;4.50;69.90;;;;;;5101630;28;20498;-73
2022/01/11 05:18:30;;;;;;;2.25;0.25;;;4.50;69.80;;;;;;5103808;28;20027;-73
2022/01/11 05:20:56;;;;;;;1.20;0.50;;;4.60;69.80;;;;;;5094855;28;20035;-72
2022/01/11 05:23:22;;;;;;;0.57;0.35;;;4.50;70.00;;;;;;5104541;28;20035;-72
2022/01/11 05:25:48;;;;;;;3.38;0.30;;;4.60;69.50;;;;;;5105381;28;20101;-72
2022/01/11 05:28:14;;;;;;;0.85;0.30;;;4.60;69.60;;;;;;5097856;28;20046;-73
2022/01/11 05:30:40;;;;;;;0.70;0.38;;;4.50;69.70;;;;;;5104699;28;20031;-73
2022/01/11 05:33:06;;;;;;;0.90;0.40;;;4.50;70.00;;;;;;5098099;28;20032;-72
2022/01/11 05:35:32;;;;;;;3.28;1.38;;;4.30;70.40;;;;;;5104980;28;20039;-72
2022/01/11 05:37:58;;;;;;;0.47;0.10;;;4.40;70.20;;;;;;5102184;28;20138;-72
2022/01/11 05:40:24;;;;;;;0.68;0.28;;;4.40;70.60;;;;;;5104844;28;20087;-72
2022/01/11 05:42:50;;;;;;;0.50;0.10;;;4.70;69.50;;;;;;5104370;28;20491;-72
2022/01/11 05:45:17;;;;;;;1.58;0.50;;;4.80;69.40;;;;;;5103624;28;20031;-72
2022/01/11 05:47:44;;;;;;;1.92;0.60;;;4.60;70.30;;;;;;5103411;28;20035;-73
2022/01/11 05:50:12;;;;;;;1.63;0.30;;;4.40;70.90;;;;;;5104334;28;20024;-72
2022/01/11 05:52:38;;;;;;;1.10;0.93;;;4.50;70.00;;;;;;5105247;28;20028;-73
2022/01/11 05:55:06;;;;;;;1.33;0.40;;;4.60;70.40;;;;;;5103594;28;20062;-73
2022/01/11 05:57:32;;;;;;;3.10;0.57;;;4.60;69.90;;;;;;5105258;28;20160;-72
2022/01/11 05:59:58;;;;;;;0.77;0.20;;;4.30;71.60;;;;;;5104184;28;20098;-73
2022/01/11 06:02:24;;;;;;;0.65;0.40;;;4.30;70.60;;;;;;5104170;27;20468;-72
2022/01/11 06:04:49;;;;;;;0.75;0.30;;;4.40;70.60;;;;;;5098227;28;20027;-72
2022/01/11 06:07:15;;;;;;;1.08;0.40;;;4.40;70.80;;;;;;5103188;28;20359;-72
2022/01/11 06:09:41;;;;;;;0.43;0.40;;;4.30;71.30;;;;;;5102599;27;20035;-72
2022/01/11 06:12:08;;;;;;;1.90;0.50;;;4.00;72.00;;;;;;5101536;28;20028;-72
2022/01/11 06:14:33;;;;;;;1.33;0.70;;;4.10;71.50;;;;;;5104411;28;21002;-73
2022/01/11 06:16:59;;;;;;;1.02;0.75;;;4.10;71.80;;;;;;5102756;28;20032;-73
2022/01/11 06:19:26;;;;;;;0.65;0.20;;;4.10;72.10;;;;;;5099184;28;20069;-73
2022/01/11 06:21:52;;;;;;;1.13;0.32;;;4.10;71.60;;;;;;5104086;28;20574;-73
2022/01/11 06:24:18;;;;;;;1.30;0.45;;;4.40;70.40;;;;;;5103463;28;20096;-72
2022/01/11 06:26:44;;;;;;;0.47;0.20;;;4.30;70.60;;;;;;5104380;28;20477;-73
2022/01/11 06:29:10;;;;;;;0.82;0.57;;;4.30;70.90;;;;;;5090100;28;20101;-73
2022/01/11 06:31:36;;;;;;;1.05;0.57;;;4.40;70.50;;;;;;5106724;28;20019;-73
2022/01/11 06:34:03;;;;;;;1.17;0.40;;;4.30;70.40;;;;;;5095215;28;20039;-72
2022/01/11 06:36:29;;;;;;;1.35;0.60;;;4.10;71.10;;;;;;5102308;28;20100;-74
2022/01/11 06:38:55;;;;;;;2.08;1.08;;;3.90;72.00;;;;;;5098417;28;20035;-73
2022/01/11 06:41:21;;;;;;;2.13;0.77;;;4.00;72.70;;;;;;5101115;28;20032;-73
2022/01/11 06:43:47;;;;;;;3.38;0.88;;;4.00;71.80;;;;;;5103962;28;20031;-73
2022/01/11 06:46:13;;;;;;;0.35;0.30;;;4.00;71.50;;;;;;5098534;28;20036;-74
2022/01/11 06:48:39;;;;;;;0.73;0.50;;;4.00;71.70;;;;;;5104872;28;20084;-73
2022/01/11 06:51:05;;;;;;;0.85;0.50;;;3.90;71.80;;;;;;5109465;28;20046;-74
2022/01/11 06:53:32;;;;;;;1.38;0.70;;;3.90;72.00;;;;;;5096935;28;20488;-73
2022/01/11 06:55:58;;;;;;;1.20;0.60;;;3.80;72.00;;;;;;5096000;28;20039;-73
2022/01/11 06:58:24;;;;;;;1.27;0.38;;;3.80;72.10;;;;;;5104704;28;20032;-74
2022/01/11 07:00:50;;;;;;;0.57;0.30;;;3.80;72.00;;;;;;5104549;28;20023;-73
2022/01/11 07:03:16;;;;;;;3.67;0.40;;;3.80;72.20;;;;;;5099380;28;20050;-73
2022/01/11 07:05:45;;;;;;;1.15;0.50;;;3.70;72.70;;;;;;5097861;27;20032;-73
2022/01/11 07:08:12;;;;;;;0.47;0.20;;;3.90;71.70;;;;;;5102328;28;20023;-73
2022/01/11 07:10:40;;;;;;;0.82;0.47;;;3.90;71.70;;;;;;5100728;28;20020;-73
2022/01/11 07:13:07;;;;;;;0.75;0.32;;;3.80;72.10;;;;;;5095640;28;20385;-73
2022/01/11 07:15:33;;;;;;;2.30;1.00;;;3.90;71.70;;;;;;5104424;28;20058;-73
2022/01/11 07:18:04;;;;;;;1.85;0.75;;;3.80;72.40;;;;;;5104035;28;20059;-73
2022/01/11 07:20:30;;;;;;;2.08;0.38;;;3.90;71.90;;;;;;5102757;28;20088;-73
2022/01/11 07:22:56;;;;;;;1.58;0.68;;;3.90;71.80;;;;;;5103181;28;20024;-73
2022/01/11 07:25:22;;;;;;;1.13;0.52;;;3.80;71.90;;;;;;5104193;28;20036;-73
2022/01/11 07:27:48;;;;;;;0.98;0.40;;;4.00;71.30;;;;;;5103924;28;20028;-72
2022/01/11 07:30:14;;;;;;;1.73;0.40;;;4.00;71.40;;;;;;5103815;28;20019;-72
2022/01/11 07:32:39;;;;;;;0.73;0.38;;;4.00;71.40;;;;;;5101270;28;20088;-72
2022/01/11 07:35:06;;;;;;;1.25;0.40;;;4.00;71.40;;;;;;5103601;28;20057;-72
2022/01/11 07:37:31;;;;;;;4.45;1.10;;;4.10;71.10;;;;;;5100745;28;20055;-73
2022/01/11 07:39:57;;;;;;;1.17;0.40;;;4.00;71.30;;;;;;5102764;28;20062;-72
2022/01/11 07:42:23;;;;;;;0.70;0.43;;;4.00;71.60;;;;;;5103280;28;20062;-72
2022/01/11 07:44:51;;;;;;;0.88;0.45;;;4.10;71.50;;;;;;5102243;28;20067;-72
2022/01/11 07:47:19;;;;;;;1.90;0.38;;;4.00;71.30;;;;;;5103815;28;20032;-72
2022/01/11 07:49:47;;;;;;;1.13;0.60;;;3.90;71.60;;;;;;5103596;28;20031;-72
2022/01/11 07:52:13;;;;;;;1.25;0.50;;;3.80;71.90;;;;;;5103466;28;20038;-71
2022/01/11 07:54:39;;;;;;;2.60;0.93;;;3.90;71.70;;;;;;5093636;28;20056;-74
2022/01/11 07:57:06;;;;;;;1.48;0.57;;;4.10;73.70;;;;;;5103775;28;20055;-72
2022/01/11 07:59:32;;;;;;;0.75;0.45;;;4.20;70.70;;;;;;5095803;28;20115;-72
2022/01/11 08:01:59;;;;;;;1.75;0.40;;;4.20;71.00;;;;;;5090826;28;20143;-71
2022/01/11 08:04:26;;;;;;;1.08;0.55;;;4.30;70.70;;;;;;5092970;28;20028;-72
2022/01/11 08:06:52;;;;;;;1.42;0.50;;;4.30;70.50;;;;;;5102521;28;20031;-73
2022/01/11 08:09:18;;;;;;;1.73;0.57;;;4.20;71.00;;;;;;5103655;28;20035;-73
2022/01/11 08:11:44;;;;;;;1.50;0.50;;;4.20;70.70;;;;;;5095877;28;20036;-73
2022/01/11 08:14:10;;;;;;;1.15;0.80;;;4.20;71.20;;;;;;5101429;28;20108;-74
2022/01/11 08:16:36;;;;;;;1.65;0.50;;;4.00;72.10;;;;;;5097435;28;20060;-72
2022/01/11 08:19:02;;;;;;;1.38;0.60;;;3.80;72.30;;;;;;5094834;28;20043;-72
2022/01/11 08:21:28;;;;;;;1.73;0.70;;;3.90;71.80;;;;;;5102682;28;20027;-72
2022/01/11 08:23:54;;;;;;;3.47;0.75;;;3.80;72.40;;;;;;5103094;28;20055;-73
2022/01/11 08:26:20;;;;;;;1.70;0.70;;;3.90;72.50;;;;;;5099098;28;20140;-74
2022/01/11 08:28:45;;;;;;;2.35;1.05;;;3.90;72.70;;;;;;5100050;28;20510;-73
2022/01/11 08:31:11;;;;;;;1.48;0.88;;;4.00;71.90;;;;;;5103055;28;20031;-75
2022/01/11 08:33:38;;;;;;;1.95;0.80;;;4.50;73.40;;;;;;5095729;28;20047;-76
2022/01/11 08:36:05;;;;;;;4.18;0.73;;;4.20;71.80;;;;;;5104231;28;20097;-76
2022/01/11 08:38:31;;;;;;;2.65;0.82;;;4.80;71.50;;;;;;5104007;28;20031;-75
2022/01/11 08:40:57;;;;;;;1.38;0.60;;;4.10;73.00;;;;;;5108620;28;20042;-76
2022/01/11 08:43:23;;;;;;;3.53;1.52;;;4.00;72.90;;;;;;5106989;28;20023;-76
2022/01/11 08:45:48;;;;;;;1.77;0.80;;;4.00;72.90;;;;;;5107256;27;20503;-76
2022/01/11 08:48:14;;;;;;;1.52;0.60;;;4.10;72.40;;;;;;5108079;28;20100;-76
2022/01/11 08:50:40;;;;;;;1.73;0.80;;;4.30;71.50;;;;;;5108715;28;20028;-77
2022/01/11 08:53:06;;;;;;;1.85;0.82;;;4.30;71.30;;;;;;5108263;28;20027;-79
2022/01/11 08:55:32;;;;;;;1.95;0.80;;;4.20;72.40;;;;;;5107437;28;20035;-78
2022/01/11 08:58:00;;;;;;;1.67;0.68;;;4.30;71.40;;;;;;5107536;28;20402;-77
2022/01/11 09:00:26;;;;;;;1.33;0.60;;;4.30;71.50;;;;;;5108244;28;20847;-77
2022/01/11 09:02:53;;;;;;;1.77;0.70;;;5.50;71.00;;;;;;5095516;28;20615;-78
2022/01/11 09:05:20;;;;;;;1.15;0.75;;;4.70;71.30;;;;;;5100026;28;20035;-77
2022/01/11 09:07:46;;;;;;;2.13;0.60;;;4.60;70.90;;;;;;5107061;28;20087;-78
2022/01/11 09:10:13;;;;;;;1.48;0.70;;;4.60;71.40;;;;;;5107103;28;20066;-78
2022/01/11 09:12:39;;;;;;;2.15;0.70;;;4.50;71.60;;;;;;5107234;28;20031;-78
2022/01/11 09:15:08;;;;;;;0.95;0.55;;;4.40;71.50;;;;;;5105346;28;20027;-78
2022/01/11 09:17:34;;;;;;;3.17;1.55;;;4.50;71.10;;;;;;5107213;28;20655;-76
2022/01/11 09:20:00;;;;;;;1.40;0.50;;;4.50;71.20;;;;;;5101749;28;20060;-78
2022/01/11 09:22:26;;;;;;;3.42;0.73;;;4.50;71.60;;;;;;5107475;28;20089;-76
2022/01/11 09:24:52;;;;;;;1.73;0.77;;;4.70;70.70;;;;;;5107464;28;20106;-80
2022/01/11 09:27:18;;;;;;;2.38;0.80;;;4.80;70.30;;;;;;5106723;28;20122;-78
2022/01/11 09:29:44;;;;;;;2.47;0.75;;;4.90;70.40;;;;;;5103829;28;20115;-78
2022/01/11 09:32:11;;;;;;;1.27;0.60;;;4.80;70.30;;;;;;5107259;28;20028;-78
2022/01/11 09:34:39;;;;;;;2.58;0.73;;;4.70;71.00;;;;;;5106928;28;20074;-78
2022/01/11 09:37:06;;;;;;;1.80;1.00;;;4.80;70.40;;;;;;5100888;28;20846;-73
2022/01/11 09:39:32;;;;;;;1.58;0.80;;;5.00;69.70;;;;;;5097738;28;20042;-75
2022/01/11 09:41:59;;;;;;;2.38;0.80;;;5.00;69.90;;;;;;5106709;28;20146;-75
2022/01/11 09:44:26;;;;;;;1.33;0.70;;;4.90;70.30;;;;;;5106748;28;20544;-75
2022/01/11 09:46:53;;;;;;;1.75;0.70;;;4.80;70.80;;;;;;5104898;28;20036;-75
2022/01/11 09:49:19;;;;;;;2.42;0.85;;;4.70;71.10;;;;;;5104567;28;20484;-75
2022/01/11 09:51:45;;;;;;;9.27;2.83;;;5.00;70.20;;;;;;5105051;27;20540;-75
2022/01/11 09:54:12;;;;;;;1.88;0.68;;;4.90;70.50;;;;;;5098772;28;20066;-75
2022/01/11 09:56:38;;;;;;;2.65;0.77;;;4.60;72.40;;;;;;5105592;28;20027;-72
2022/01/11 09:59:06;;;;;;;1.55;0.70;;;4.50;72.00;;;;;;5106930;28;20028;-75
2022/01/11 10:01:35;;;;;;;1.60;0.55;;;4.50;71.70;;;;;;5101266;28;20077;-75
2022/01/11 10:04:04;;;;;;;1.00;0.60;;;4.60;71.40;;;;;;5100170;28;20067;-75
2022/01/11 10:06:31;;;;;;;2.38;0.93;;;4.70;71.50;;;;;;5103749;28;20901;-75
2022/01/11 10:09:18;;;;;;;1.95;0.68;;;5.00;70.10;;;;;;5106450;28;20071;-75
2022/01/11 10:11:53;;;;;;;1.50;0.60;;;5.20;70.70;;;;;;5104571;28;20027;-75
2022/01/11 10:14:37;;;;;;;3.55;0.95;;;5.20;70.00;;;;;;5104756;28;20063;-75
2022/01/11 10:17:18;;;;;;;1.70;0.60;;;5.20;69.80;;;;;;5106340;28;20649;-74
2022/01/11 10:19:49;;;;;;;2.13;0.82;;;5.10;70.30;;;;;;5105497;28;20023;-75
2022/01/11 10:22:22;;;;;;;1.25;0.57;;;5.00;70.60;;;;;;5105661;28;20142;-72
2022/01/11 10:24:50;;;;;;;1.45;0.70;;;5.20;69.90;;;;;;5105626;28;20050;-74
2022/01/11 10:27:19;;;;;;;1.33;0.70;;;5.40;69.10;;;;;;5101864;27;20057;-73
2022/01/11 10:29:48;;;;;;;3.33;1.00;;;5.40;69.20;;;;;;5105087;28;20023;-72
2022/01/11 10:32:40;;;;;;;2.25;0.60;;;5.60;68.40;;;;;;5104074;28;20031;-72
2022/01/11 10:35:23;;;;;;;1.58;0.80;;;5.50;68.80;;;;;;5105408;28;20572;-72
2022/01/11 10:37:55;;;;;;;1.15;0.52;;;5.40;69.70;;;;;;5103267;28;20385;-75
2022/01/11 10:40:34;;;;;;;1.20;0.75;;;5.50;68.90;;;;;;5104545;28;20489;-72
2022/01/11 10:43:06;;;;;;;3.75;1.40;;;5.60;68.60;;;;;;5101655;28;20374;-72
2022/01/11 10:45:33;;;;;;;6.20;3.22;;;5.80;67.90;;;;;;5096124;28;20038;-73
2022/01/11 10:48:08;;;;;;;2.80;1.23;;;5.70;68.80;;;;;;5104248;28;20040;-72
2022/01/11 10:50:37;;;;;;;2.10;0.90;;;5.60;69.00;;;;;;5105238;28;20026;-72
2022/01/11 10:53:25;;;;;;;15.50;11.63;;;5.50;70.00;;;;;;5103298;28;20051;-72
2022/01/11 10:55:53;;;;;;;5.60;1.40;;;5.90;68.80;;;;;;5104411;28;20386;-72
2022/01/11 10:58:19;;;;;;;2.03;0.98;;;6.10;68.00;;;;;;5104008;28;20080;-73
2022/01/11 11:00:48;;;;;;;7.95;0.90;;;6.40;67.90;;;;;;5089653;28;20036;-73
2022/01/11 11:03:26;;;;;;;2.90;1.02;;;6.50;67.80;;;;;;5101752;28;20027;-72
2022/01/11 11:05:58;;;;;;;4.00;1.52;;;6.60;67.20;;;;;;5104230;28;20039;-72
2022/01/11 11:08:34;;;;;;;2.78;1.20;;;6.60;67.90;;;;;;5103873;28;20047;-72
2022/01/11 11:11:04;;;;;;;5.85;2.33;;;6.60;67.50;;;;;;5104428;28;20049;-72
2022/01/11 11:13:33;;;;;;;3.85;0.95;;;6.80;67.00;;;;;;5102956;28;20063;-72
2022/01/11 11:16:08;;;;;;;1.90;0.80;;;6.90;68.00;;;;;;5104304;28;20285;-73
2022/01/11 11:18:38;;;;;;;;;;;6.90;66.30;;;;;;5101629;28;20023;-72
2022/01/11 11:21:32;;;;;;;2.70;1.00;;;6.80;67.00;;;;;;5104201;28;19961;-72
2022/01/11 11:23:59;;;;;;;4.65;0.90;;;6.90;67.00;;;;;;5099931;28;20086;-72
2022/01/11 11:26:36;;;;;;;3.92;1.30;;;7.20;66.70;;;;;;5100601;28;20050;-72
2022/01/11 11:29:02;;;;;;;2.13;0.90;;;7.20;66.30;;;;;;5095084;28;20128;-72
2022/01/11 11:31:29;;;;;;;2.97;1.05;;;7.30;65.00;;;;;;5101435;28;20571;-72
2022/01/11 11:33:55;;;;;;;3.55;0.80;;;7.40;65.80;;;;;;5104009;28;20027;-72
2022/01/11 11:36:22;;;;;;;1.75;0.68;;;7.60;65.70;;;;;;5101615;28;20553;-72
2022/01/11 11:39:13;;;;;;;1.40;0.70;;;7.70;65.10;;;;;;5103968;28;20027;-72
2022/01/11 11:41:41;;;;;;;1.33;0.50;;;7.80;65.30;;;;;;5102146;28;20027;-72
2022/01/11 11:44:13;;;;;;;1.88;0.63;;;7.90;64.60;;;;;;5103151;28;20412;-74
2022/01/11 11:46:42;;;;;;;1.98;0.77;;;7.80;64.80;;;;;;5102499;28;20036;-73
2022/01/11 11:49:07;;;;;;;1.25;0.57;;;7.90;64.60;;;;;;5103735;28;20024;-72
2022/01/11 11:51:39;;;;;;;1.25;0.57;;;7.80;65.00;;;;;;5100231;28;20050;-72
2022/01/11 11:54:20;;;;;;;3.35;0.90;;;7.80;65.30;;;;;;5095412;28;20047;-72
2022/01/11 11:56:47;;;;;;;2.53;0.90;;;8.00;65.40;;;;;;5102002;28;20122;-72
2022/01/11 11:59:13;;;;;;;2.35;0.82;;;8.10;64.80;;;;;;5104288;28;20113;-74
2022/01/11 12:01:45;;;;;;;2.05;0.73;;;8.20;64.80;;;;;;5100147;28;20385;-74
2022/01/11 12:04:31;;;;;;;1.77;0.65;;;8.30;64.50;;;;;;5106900;28;20026;-74
2022/01/11 12:07:00;;;;;;;1.52;0.60;;;8.30;64.10;;;;;;5097498;28;20028;-74
2022/01/11 12:09:32;;;;;;;3.55;0.98;;;8.30;63.80;;;;;;5097667;28;20524;-74
2022/01/11 12:11:59;;;;;;;3.47;0.65;;;8.50;63.50;;;;;;5106326;28;20059;-74
2022/01/11 12:14:33;;;;;;;3.40;0.70;;;8.40;64.40;;;;;;5105527;28;20031;-74
2022/01/11 12:17:16;;;;;;;3.00;0.63;;;8.30;64.00;;;;;;5104798;28;20031;-74
2022/01/11 12:19:49;;;;;;;2.55;0.80;;;8.40;64.50;;;;;;5106471;28;20031;-74
2022/01/11 12:22:24;;;;;;;5.97;2.70;;;8.50;64.30;;;;;;5106241;28;20039;-74
2022/01/11 12:24:54;;;;;;;2.67;1.33;;;8.60;64.60;;;;;;5106293;28;20130;-74
2022/01/11 12:27:22;;;;;;;2.92;1.30;;;8.60;63.70;;;;;;5099236;28;20118;-74
2022/01/11 12:30:08;;;;;;;3.42;1.23;;;8.70;63.70;;;;;;5098482;28;20034;-74
2022/01/11 12:32:38;;;;;;;4.43;1.67;;;8.60;63.00;;;;;;5099276;28;20038;-74
2022/01/11 12:35:20;;;;;;;2.10;0.80;;;8.60;62.90;;;;;;5106224;28;20533;-74
2022/01/11 12:37:46;;;;;;;1.50;0.90;;;8.70;63.10;;;;;;5101177;28;20505;-75
2022/01/11 12:40:15;;;;;;;1.63;0.80;;;8.70;63.80;;;;;;5099864;28;20607;-75
2022/01/11 12:42:53;;;;;;;2.05;0.95;;;8.90;62.80;;;;;;5102809;28;20025;-75
2022/01/11 12:46:00;;;;;;;2.90;1.05;;;8.80;62.90;;;;;;5106055;28;20042;-75
2022/01/11 12:48:53;;;;;;;3.22;1.33;;;8.80;62.70;;;;;;5104404;28;20028;-75
2022/01/11 12:51:22;;;;;;;8.93;4.57;;;9.00;63.10;;;;;;5104007;28;20427;-75
2022/01/11 12:54:08;;;;;;;7.50;2.50;;;8.90;62.60;;;;;;5105956;28;20039;-75
2022/01/11 12:56:38;;;;;;;1.80;0.70;;;8.80;62.60;;;;;;5105336;28;20394;-75
2022/01/11 12:59:04;;;;;;;2.70;0.98;;;8.90;63.30;;;;;;5102205;28;20027;-75
2022/01/11 13:01:30;;;;;;;1.88;0.57;;;9.00;64.10;;;;;;5101113;28;20027;-75
2022/01/11 13:03:57;;;;;;;1.63;0.77;;;8.90;63.10;;;;;;5105437;28;20421;-75